Time;durP1;ratioP1;P1;durP2;ratioP2;P2;SDS_P1;SDS_P2;PMS_P1;PMS_P2;Temp;Humidity;BMP_temperature;BMP_pressure;BME280_temperature;BME280_humidity;BME280_pressure;Samples;Min_cycle;Max_cycle;Signal;HPM_P1;HPM_P2
2021/12/26 00:00:10;;;;;;;9.40;6.10;;;5.50;86.10;;;;;;5101868;27;20185;-75
2021/12/26 00:02:36;;;;;;;8.43;5.97;;;5.40;86.40;;;;;;5126432;27;20177;-75
2021/12/26 00:05:03;;;;;;;14.10;7.10;;;5.40;86.50;;;;;;5120566;27;20671;-75
2021/12/26 00:07:29;;;;;;;7.43;5.27;;;5.40;86.40;;;;;;5122747;27;20666;-74
2021/12/26 00:09:54;;;;;;;8.50;5.80;;;5.40;86.50;;;;;;5123155;27;20230;-74
2021/12/26 00:12:20;;;;;;;12.37;6.40;;;5.40;86.20;;;;;;5122142;27;20185;-75
2021/12/26 00:14:46;;;;;;;11.67;5.47;;;5.30;86.40;;;;;;5124964;27;20181;-74
2021/12/26 00:17:12;;;;;;;10.57;5.53;;;5.30;86.50;;;;;;5102368;27;20185;-73
2021/12/26 00:19:37;;;;;;;10.63;6.53;;;5.30;86.60;;;;;;5127451;27;20179;-73
2021/12/26 00:22:03;;;;;;;7.67;5.47;;;5.30;86.60;;;;;;5118500;27;20570;-75
2021/12/26 00:24:29;;;;;;;8.23;6.23;;;5.30;86.50;;;;;;5124712;27;20658;-73
2021/12/26 00:26:55;;;;;;;5.50;4.97;;;5.30;86.40;;;;;;5122510;27;20180;-73
2021/12/26 00:29:21;;;;;;;8.50;6.30;;;5.30;86.30;;;;;;5123278;27;20224;-73
2021/12/26 00:31:46;;;;;;;10.90;6.67;;;5.20;86.40;;;;;;5125872;27;20180;-73
2021/12/26 00:34:12;;;;;;;8.77;5.80;;;5.20;86.70;;;;;;5124371;27;20215;-73
2021/12/26 00:36:38;;;;;;;7.70;6.33;;;5.20;86.70;;;;;;5121061;27;20181;-73
2021/12/26 00:39:05;;;;;;;6.63;5.83;;;5.20;86.60;;;;;;5125295;27;20181;-73
2021/12/26 00:41:31;;;;;;;13.07;7.47;;;5.10;86.80;;;;;;5125669;27;20181;-74
2021/12/26 00:43:57;;;;;;;11.20;6.13;;;5.10;87.00;;;;;;5121742;27;20189;-74
2021/12/26 00:46:23;;;;;;;12.73;6.33;;;5.10;86.90;;;;;;5120428;27;20201;-74
2021/12/26 00:48:48;;;;;;;7.80;6.00;;;5.10;86.70;;;;;;5122085;27;20243;-73
2021/12/26 00:51:14;;;;;;;9.40;6.30;;;5.10;86.80;;;;;;5122459;27;20185;-74
2021/12/26 00:53:40;;;;;;;8.97;7.23;;;5.00;86.90;;;;;;5123371;27;20637;-74
2021/12/26 00:56:06;;;;;;;11.67;6.53;;;5.00;86.90;;;;;;5118713;27;20176;-74
2021/12/26 00:58:32;;;;;;;9.93;6.20;;;5.00;87.10;;;;;;5123839;27;20192;-73
2021/12/26 01:00:58;;;;;;;12.93;6.27;;;4.90;87.20;;;;;;5118659;27;20560;-75
2021/12/26 01:03:23;;;;;;;11.93;6.27;;;4.90;87.20;;;;;;5120771;27;20181;-74
2021/12/26 01:05:53;;;;;;;9.20;6.43;;;4.80;87.20;;;;;;5119729;27;20181;-75
2021/12/26 01:08:25;;;;;;;10.60;6.47;;;4.80;87.40;;;;;;5119829;27;20213;-75
2021/12/26 01:10:59;;;;;;;12.43;7.17;;;4.70;87.80;;;;;;5105257;27;20616;-75
2021/12/26 01:13:37;;;;;;;10.57;5.13;;;4.60;87.70;;;;;;5122064;27;20323;-74
2021/12/26 01:16:07;;;;;;;12.60;6.80;;;4.60;87.60;;;;;;5103236;27;20200;-75
2021/12/26 01:18:37;;;;;;;12.47;7.53;;;4.60;87.60;;;;;;5120802;27;20189;-74
2021/12/26 01:21:16;;;;;;;15.77;8.60;;;4.50;87.60;;;;;;5100569;27;20181;-74
2021/12/26 01:23:47;;;;;;;25.73;10.40;;;4.50;87.90;;;;;;5103935;27;20181;-74
2021/12/26 01:26:13;;;;;;;12.90;9.33;;;4.40;88.40;;;;;;5118003;27;20181;-74
2021/12/26 01:28:40;;;;;;;16.67;9.27;;;4.40;88.40;;;;;;5120543;27;20210;-74
2021/12/26 01:31:06;;;;;;;17.43;9.33;;;4.30;88.40;;;;;;5102879;27;20185;-75
2021/12/26 01:33:33;;;;;;;17.37;10.07;;;4.30;88.50;;;;;;5124507;27;20195;-75
2021/12/26 01:35:59;;;;;;;18.53;9.33;;;4.30;88.30;;;;;;5122465;27;20185;-74
2021/12/26 01:38:25;;;;;;;22.70;10.27;;;4.20;88.40;;;;;;5121822;27;20181;-75
2021/12/26 01:40:57;;;;;;;17.67;8.80;;;4.20;88.70;;;;;;5123059;27;20309;-75
2021/12/26 01:43:26;;;;;;;15.13;9.10;;;4.20;88.80;;;;;;5121437;27;20279;-75
2021/12/26 01:45:53;;;;;;;17.80;9.40;;;4.20;89.00;;;;;;5119814;27;20181;-75
2021/12/26 01:48:20;;;;;;;16.43;9.70;;;4.10;89.20;;;;;;5118920;27;20679;-75
2021/12/26 01:50:48;;;;;;;22.00;11.23;;;4.10;89.20;;;;;;5119377;27;20193;-75
2021/12/26 01:53:15;;;;;;;14.27;8.73;;;4.10;89.50;;;;;;5123716;27;20227;-74
2021/12/26 01:55:44;;;;;;;11.43;8.47;;;4.10;89.80;;;;;;5122823;27;20187;-75
2021/12/26 01:58:16;;;;;;;18.17;9.23;;;4.10;89.60;;;;;;5121128;27;20304;-74
2021/12/26 02:00:45;;;;;;;23.17;8.67;;;4.10;89.50;;;;;;5121989;27;20625;-75
2021/12/26 02:03:11;;;;;;;16.53;8.80;;;4.10;89.70;;;;;;5123299;27;20184;-75
2021/12/26 02:05:37;;;;;;;20.00;9.87;;;4.10;89.50;;;;;;5118853;27;20240;-75
2021/12/26 02:08:04;;;;;;;14.13;8.77;;;4.10;89.50;;;;;;5124183;28;20298;-74
2021/12/26 02:10:30;;;;;;;13.20;9.17;;;4.10;90.00;;;;;;5122010;28;20707;-74
2021/12/26 02:12:56;;;;;;;14.37;8.47;;;4.10;89.70;;;;;;5122693;28;20181;-73
2021/12/26 02:15:22;;;;;;;11.37;7.07;;;4.10;89.80;;;;;;5119053;28;20189;-74
2021/12/26 02:17:48;;;;;;;12.43;7.80;;;4.10;89.60;;;;;;5120128;28;20267;-74
2021/12/26 02:23:30;;;;;;;14.70;7.57;;;4.20;89.60;;;;;;5123383;28;20617;-73
2021/12/26 02:28:27;;;;;;;16.77;8.17;;;4.20;89.60;;;;;;5121885;27;20252;-73
2021/12/26 02:30:55;;;;;;;12.27;7.33;;;4.20;89.60;;;;;;5124245;27;20180;-74
2021/12/26 02:33:21;;;;;;;13.07;7.60;;;4.20;89.50;;;;;;5125368;27;20181;-73
2021/12/26 02:35:48;;;;;;;8.60;5.63;;;4.20;89.60;;;;;;5102801;27;21125;-74
2021/12/26 02:38:15;;;;;;;17.47;8.47;;;4.30;89.40;;;;;;5127089;27;20620;-74
2021/12/26 02:40:43;;;;;;;8.93;6.10;;;4.30;89.30;;;;;;5126349;27;20268;-74
2021/12/26 02:43:09;;;;;;;7.87;5.63;;;4.30;89.30;;;;;;5118143;27;20184;-73
2021/12/26 02:45:36;;;;;;;9.27;5.67;;;4.30;89.50;;;;;;5120274;27;20255;-73
2021/12/26 02:48:06;;;;;;;11.93;5.20;;;4.30;89.60;;;;;;5125451;27;20943;-74
2021/12/26 02:50:32;;;;;;;8.40;5.23;;;4.30;89.40;;;;;;5124588;27;20186;-74
2021/12/26 02:53:03;;;;;;;7.90;5.63;;;4.30;89.50;;;;;;5106824;27;20177;-74
2021/12/26 02:55:29;;;;;;;6.63;4.43;;;4.30;89.50;;;;;;5125881;27;20617;-73
2021/12/26 02:58:01;;;;;;;7.77;4.87;;;4.40;89.40;;;;;;5124134;27;20186;-74
2021/12/26 03:00:30;;;;;;;5.03;4.53;;;4.40;89.20;;;;;;5125599;27;20184;-73
2021/12/26 03:03:00;;;;;;;7.57;4.50;;;4.40;89.10;;;;;;5125656;27;20654;-73
2021/12/26 03:05:29;;;;;;;5.13;4.10;;;4.50;89.00;;;;;;5124124;27;20173;-73
2021/12/26 03:07:55;;;;;;;9.33;5.30;;;4.50;89.00;;;;;;5122907;27;20220;-72
2021/12/26 03:10:24;;;;;;;9.70;6.23;;;4.50;89.00;;;;;;5125235;27;20183;-73
2021/12/26 03:12:57;;;;;;;7.10;5.07;;;4.50;89.20;;;;;;5140348;27;20243;-75
2021/12/26 03:15:25;;;;;;;5.10;4.63;;;4.50;89.10;;;;;;5125284;27;20190;-75
2021/12/26 03:17:52;;;;;;;7.07;4.23;;;4.50;89.20;;;;;;5123798;27;20177;-72
2021/12/26 03:20:20;;;;;;;6.67;4.33;;;4.50;89.20;;;;;;5124526;27;20177;-73
2021/12/26 03:22:46;;;;;;;4.23;3.50;;;4.50;89.10;;;;;;5126034;27;20194;-75
2021/12/26 03:25:15;;;;;;;5.53;4.20;;;4.50;89.10;;;;;;5121502;27;20181;-75
2021/12/26 03:27:40;;;;;;;6.30;4.30;;;4.50;89.20;;;;;;5124530;27;20222;-75
2021/12/26 03:30:08;;;;;;;8.90;4.23;;;4.60;89.20;;;;;;5126572;27;21458;-75
2021/12/26 03:32:34;;;;;;;7.33;4.43;;;4.60;89.00;;;;;;5126478;27;20510;-76
2021/12/26 03:35:00;;;;;;;5.83;3.87;;;4.60;89.00;;;;;;5124345;27;20174;-76
2021/12/26 03:37:25;;;;;;;6.10;3.07;;;4.50;89.20;;;;;;5119744;27;20256;-75
2021/12/26 03:39:51;;;;;;;4.40;3.97;;;4.60;89.10;;;;;;5124982;27;20181;-75
2021/12/26 03:42:21;;;;;;;3.53;3.13;;;4.50;89.30;;;;;;5124613;27;20189;-75
2021/12/26 03:44:47;;;;;;;4.40;3.17;;;4.60;89.30;;;;;;5125584;27;20269;-75
2021/12/26 03:47:13;;;;;;;4.77;3.73;;;4.60;89.10;;;;;;5119259;27;20239;-75
2021/12/26 03:49:39;;;;;;;8.10;4.17;;;4.70;89.10;;;;;;5125692;27;20216;-75
2021/12/26 03:52:05;;;;;;;4.77;3.77;;;4.60;89.10;;;;;;5123510;27;21003;-75
2021/12/26 03:54:30;;;;;;;5.17;4.10;;;4.60;89.10;;;;;;5127079;27;20176;-75
2021/12/26 03:56:56;;;;;;;5.30;4.60;;;4.70;89.00;;;;;;5099551;27;20192;-74
2021/12/26 03:59:22;;;;;;;4.30;3.90;;;4.70;89.00;;;;;;5121768;27;20218;-73
2021/12/26 04:01:48;;;;;;;6.30;4.03;;;4.70;88.80;;;;;;5124539;27;20909;-72
2021/12/26 04:04:14;;;;;;;5.67;4.77;;;4.70;88.90;;;;;;5124365;27;20645;-75
2021/12/26 04:06:40;;;;;;;5.20;3.93;;;4.70;88.80;;;;;;5120257;27;20189;-73
2021/12/26 04:09:07;;;;;;;5.13;4.03;;;4.70;88.90;;;;;;5105569;27;20209;-73
2021/12/26 04:11:33;;;;;;;4.50;4.13;;;4.80;88.80;;;;;;5119436;27;20182;-73
2021/12/26 04:13:59;;;;;;;4.50;4.03;;;4.80;88.70;;;;;;5126098;27;20233;-73
2021/12/26 04:16:24;;;;;;;13.17;4.20;;;4.90;88.60;;;;;;5120394;27;20193;-73
2021/12/26 04:18:50;;;;;;;4.63;3.27;;;4.90;88.50;;;;;;5125541;27;20718;-73
2021/12/26 04:21:16;;;;;;;4.03;3.63;;;5.00;88.30;;;;;;5122446;27;20269;-73
2021/12/26 04:23:41;;;;;;;5.43;4.37;;;5.00;88.20;;;;;;5125197;27;20177;-73
2021/12/26 04:26:07;;;;;;;6.30;4.37;;;4.90;88.20;;;;;;5122068;27;20701;-73
2021/12/26 04:28:33;;;;;;;4.33;3.97;;;4.90;88.30;;;;;;5125654;27;20645;-73
2021/12/26 04:30:59;;;;;;;7.10;4.23;;;4.90;88.20;;;;;;5123305;27;20187;-73
2021/12/26 04:33:25;;;;;;;4.37;3.97;;;4.80;88.30;;;;;;5122820;27;20187;-74
2021/12/26 04:35:51;;;;;;;4.63;3.97;;;4.80;88.50;;;;;;5121082;27;20265;-73
2021/12/26 04:38:17;;;;;;;18.07;4.77;;;4.80;88.50;;;;;;5121096;27;20245;-73
2021/12/26 04:40:43;;;;;;;6.60;4.60;;;4.70;88.90;;;;;;5123644;27;20180;-73
2021/12/26 04:43:09;;;;;;;7.30;3.83;;;4.70;88.90;;;;;;5124885;27;20189;-73
2021/12/26 04:45:34;;;;;;;8.23;4.73;;;4.70;89.10;;;;;;5123963;27;20625;-73
2021/12/26 04:48:02;;;;;;;5.37;4.03;;;4.70;89.20;;;;;;5116651;27;20783;-73
2021/12/26 04:50:29;;;;;;;6.70;5.10;;;4.80;89.10;;;;;;5121785;27;20212;-73
2021/12/26 04:52:55;;;;;;;5.07;4.20;;;4.70;89.30;;;;;;5101740;27;20181;-73
2021/12/26 04:55:25;;;;;;;9.13;4.60;;;4.80;89.20;;;;;;5123675;27;20185;-74
2021/12/26 04:57:51;;;;;;;15.33;6.87;;;4.80;89.10;;;;;;5121380;27;20188;-73
2021/12/26 05:00:19;;;;;;;11.43;5.30;;;4.90;88.90;;;;;;5123451;27;20261;-73
2021/12/26 05:02:46;;;;;;;8.23;6.20;;;4.90;88.80;;;;;;5123495;27;20181;-73
2021/12/26 05:05:12;;;;;;;9.90;6.00;;;4.90;89.00;;;;;;5118139;27;20260;-73
2021/12/26 05:07:40;;;;;;;6.57;5.70;;;5.00;89.00;;;;;;5120955;27;20188;-74
2021/12/26 05:10:08;;;;;;;6.60;4.57;;;5.00;88.90;;;;;;5123410;27;20185;-73
2021/12/26 05:12:36;;;;;;;9.27;5.47;;;5.10;88.80;;;;;;5121285;27;20180;-75
2021/12/26 05:15:03;;;;;;;8.70;5.60;;;5.10;88.60;;;;;;5104177;27;20181;-73
2021/12/26 05:17:30;;;;;;;9.03;5.60;;;5.20;88.40;;;;;;5117546;27;20184;-73
2021/12/26 05:19:56;;;;;;;7.00;5.60;;;5.20;88.30;;;;;;5103210;27;20629;-74
2021/12/26 05:22:22;;;;;;;6.87;4.80;;;5.20;88.30;;;;;;5120934;27;20226;-74
2021/12/26 05:24:48;;;;;;;6.87;5.50;;;5.30;88.20;;;;;;5118380;27;20603;-74
2021/12/26 05:27:15;;;;;;;8.10;6.07;;;5.30;88.00;;;;;;5121059;27;20178;-74
2021/12/26 05:29:40;;;;;;;6.63;4.87;;;5.30;87.90;;;;;;5103157;27;20220;-74
2021/12/26 05:32:07;;;;;;;8.20;4.60;;;5.40;87.90;;;;;;5123610;27;20177;-73
2021/12/26 05:34:32;;;;;;;6.97;5.37;;;5.40;88.00;;;;;;5122742;27;20208;-74
2021/12/26 05:36:58;;;;;;;6.57;5.03;;;5.40;87.90;;;;;;5119339;27;20231;-74
2021/12/26 05:39:24;;;;;;;8.57;5.30;;;5.40;87.80;;;;;;5120286;27;20662;-74
2021/12/26 05:41:51;;;;;;;10.07;4.80;;;5.50;87.80;;;;;;5120693;27;20216;-74
2021/12/26 05:44:17;;;;;;;6.20;4.93;;;5.50;87.80;;;;;;5119854;27;20181;-73
2021/12/26 05:46:43;;;;;;;4.77;4.33;;;5.50;87.80;;;;;;5119422;27;20242;-74
2021/12/26 05:49:09;;;;;;;7.53;4.87;;;5.50;88.00;;;;;;5105247;27;20574;-73
2021/12/26 05:51:35;;;;;;;5.27;4.33;;;5.50;88.00;;;;;;5100834;27;20192;-73
2021/12/26 05:54:01;;;;;;;7.60;5.27;;;5.60;88.00;;;;;;5124419;27;20212;-74
2021/12/26 05:56:26;;;;;;;7.63;6.03;;;5.50;88.00;;;;;;5117419;27;20199;-75
2021/12/26 05:58:52;;;;;;;6.27;5.00;;;5.50;88.30;;;;;;5113093;27;20210;-73
2021/12/26 06:01:18;;;;;;;8.70;5.40;;;5.40;88.50;;;;;;5117223;27;20185;-73
2021/12/26 06:03:43;;;;;;;11.70;5.63;;;5.50;88.70;;;;;;5120169;27;20197;-73
2021/12/26 06:06:09;;;;;;;9.63;5.23;;;5.40;89.00;;;;;;5118704;27;21645;-74
2021/12/26 06:08:35;;;;;;;11.37;6.40;;;5.40;89.30;;;;;;5122762;28;20724;-75
2021/12/26 06:11:01;;;;;;;8.23;5.40;;;5.30;89.70;;;;;;5123181;28;20723;-74
2021/12/26 06:13:26;;;;;;;6.30;5.50;;;5.30;90.10;;;;;;5100652;28;20178;-74
2021/12/26 06:15:54;;;;;;;8.23;5.60;;;5.30;90.20;;;;;;5115983;28;20185;-73
2021/12/26 06:18:20;;;;;;;10.27;5.63;;;5.40;90.20;;;;;;5114008;28;20185;-74
2021/12/26 06:20:46;;;;;;;7.17;5.33;;;5.40;90.50;;;;;;5119682;28;20185;-75
2021/12/26 06:23:12;;;;;;;7.23;4.93;;;5.30;91.00;;;;;;5119725;28;20610;-75
2021/12/26 06:25:38;;;;;;;8.17;5.80;;;5.30;91.00;;;;;;5094457;28;20189;-75
2021/12/26 06:28:04;;;;;;;8.53;4.80;;;5.30;91.20;;;;;;5116759;28;20615;-75
2021/12/26 06:30:30;;;;;;;10.30;6.00;;;5.30;91.40;;;;;;5122033;28;20242;-75
2021/12/26 06:32:55;;;;;;;5.63;4.93;;;5.40;91.30;;;;;;5120333;28;20657;-74
2021/12/26 06:35:21;;;;;;;4.93;4.53;;;5.40;91.10;;;;;;5121926;28;20184;-74
2021/12/26 06:37:47;;;;;;;10.83;5.13;;;5.40;91.30;;;;;;5104486;28;20229;-74
2021/12/26 06:40:13;;;;;;;4.90;4.30;;;5.30;91.80;;;;;;5123504;28;20181;-75
2021/12/26 06:42:43;;;;;;;4.93;4.00;;;5.30;91.60;;;;;;5120931;28;20184;-73
2021/12/26 06:45:11;;;;;;;7.10;4.33;;;5.30;91.80;;;;;;5120540;28;20205;-74
2021/12/26 06:47:37;;;;;;;6.80;5.10;;;5.40;91.70;;;;;;5120875;28;20188;-74
2021/12/26 06:50:05;;;;;;;6.50;4.73;;;5.40;92.10;;;;;;5119689;28;20177;-74
2021/12/26 06:52:31;;;;;;;5.20;4.10;;;5.40;92.30;;;;;;5117631;28;20192;-74
2021/12/26 06:54:56;;;;;;;6.47;4.23;;;5.40;91.90;;;;;;5120740;28;20177;-73
2021/12/26 06:57:22;;;;;;;5.67;3.87;;;5.50;91.70;;;;;;5121940;28;20252;-72
2021/12/26 06:59:48;;;;;;;5.77;4.10;;;5.50;91.50;;;;;;5118270;28;20191;-72
2021/12/26 07:02:14;;;;;;;5.37;4.30;;;5.60;91.30;;;;;;5108221;28;20203;-72
2021/12/26 07:04:40;;;;;;;5.73;4.10;;;5.60;91.00;;;;;;5117579;28;20292;-73
2021/12/26 07:07:05;;;;;;;4.57;3.57;;;5.60;90.80;;;;;;5117733;28;20177;-73
2021/12/26 07:09:31;;;;;;;5.53;3.43;;;5.60;90.40;;;;;;5121018;28;20247;-72
2021/12/26 07:11:57;;;;;;;4.70;4.27;;;5.50;90.80;;;;;;5121758;28;20177;-73
2021/12/26 07:14:23;;;;;;;4.13;3.57;;;;;;;;;;5114273;28;20188;-75
2021/12/26 07:16:49;;;;;;;6.40;4.03;;;5.50;90.90;;;;;;5123101;27;20174;-73
2021/12/26 07:19:14;;;;;;;5.33;4.07;;;5.60;90.80;;;;;;5125021;27;20219;-73
2021/12/26 07:21:41;;;;;;;4.60;3.20;;;5.60;90.80;;;;;;5118034;27;20176;-73
2021/12/26 07:24:07;;;;;;;14.27;3.13;;;5.60;90.60;;;;;;5120419;27;20176;-73
2021/12/26 07:26:33;;;;;;;4.67;3.03;;;5.60;90.50;;;;;;5124001;27;21084;-75
2021/12/26 07:28:59;;;;;;;3.60;2.67;;;5.60;91.00;;;;;;5128551;27;20307;-74
2021/12/26 07:31:25;;;;;;;4.83;3.53;;;5.70;90.80;;;;;;5126333;27;20181;-73
2021/12/26 07:33:51;;;;;;;9.30;3.90;;;5.70;90.70;;;;;;5123677;27;20246;-75
2021/12/26 07:36:17;;;;;;;4.67;3.07;;;5.70;91.10;;;;;;5124347;27;20178;-75
2021/12/26 07:38:43;;;;;;;6.43;4.67;;;5.70;91.20;;;;;;5124073;27;20203;-74
2021/12/26 07:41:08;;;;;;;4.70;4.00;;;5.70;91.40;;;;;;5126875;27;20181;-75
2021/12/26 07:43:34;;;;;;;3.27;2.30;;;5.70;91.30;;;;;;5123888;27;21070;-74
2021/12/26 07:46:00;;;;;;;3.27;3.07;;;5.80;91.20;;;;;;5100775;27;20650;-75
2021/12/26 07:48:26;;;;;;;3.80;3.50;;;5.80;91.00;;;;;;5125228;27;20212;-76
2021/12/26 07:50:52;;;;;;;3.63;3.33;;;5.70;91.30;;;;;;5125991;27;20184;-75
2021/12/26 07:53:18;;;;;;;3.63;3.33;;;5.70;91.30;;;;;;5122678;27;20749;-75
2021/12/26 07:55:44;;;;;;;3.27;2.97;;;5.70;91.60;;;;;;5119476;27;20269;-74
2021/12/26 07:58:10;;;;;;;10.93;4.40;;;5.70;91.80;;;;;;5104223;27;20632;-74
2021/12/26 08:00:36;;;;;;;6.63;4.63;;;5.80;91.40;;;;;;5124842;27;20177;-73
2021/12/26 08:03:02;;;;;;;4.37;3.97;;;5.80;91.90;;;;;;5126397;27;20176;-74
2021/12/26 08:05:28;;;;;;;5.00;3.83;;;5.80;91.80;;;;;;5121288;27;20189;-74
2021/12/26 08:07:54;;;;;;;6.77;4.70;;;5.90;91.60;;;;;;5119777;27;20760;-75
2021/12/26 08:10:20;;;;;;;4.03;3.60;;;5.90;91.90;;;;;;5120142;27;20597;-75
2021/12/26 08:12:45;;;;;;;4.03;3.70;;;5.90;91.90;;;;;;5118462;27;20197;-75
2021/12/26 08:15:12;;;;;;;5.57;3.53;;;6.00;91.70;;;;;;5117297;27;20184;-75
2021/12/26 08:17:38;;;;;;;4.27;3.87;;;6.10;91.60;;;;;;5122472;27;20185;-75
2021/12/26 08:20:05;;;;;;;3.70;3.40;;;6.10;91.10;;;;;;5126753;27;20634;-78
2021/12/26 08:22:31;;;;;;;5.00;3.10;;;6.20;91.20;;;;;;5118365;27;20181;-77
2021/12/26 08:24:57;;;;;;;4.50;3.30;;;6.30;90.80;;;;;;5123884;27;20591;-80
2021/12/26 08:27:23;;;;;;;4.43;2.93;;;6.40;90.60;;;;;;5127740;27;20187;-76
2021/12/26 08:29:49;;;;;;;3.03;2.80;;;6.50;90.40;;;;;;5119885;27;20201;-76
2021/12/26 08:32:17;;;;;;;4.43;2.90;;;6.70;90.40;;;;;;5101916;27;20189;-75
2021/12/26 08:34:44;;;;;;;4.87;3.17;;;6.80;90.20;;;;;;5106942;27;20212;-73
2021/12/26 08:37:11;;;;;;;5.70;2.90;;;6.90;89.70;;;;;;5105981;27;20213;-75
2021/12/26 08:39:39;;;;;;;3.57;3.27;;;7.00;89.40;;;;;;5122318;27;20619;-75
2021/12/26 08:42:07;;;;;;;2.93;2.70;;;7.30;88.80;;;;;;5125031;27;20198;-74
2021/12/26 08:44:34;;;;;;;5.30;3.50;;;7.40;88.20;;;;;;5128692;27;20185;-76
2021/12/26 08:47:00;;;;;;;5.73;4.03;;;7.40;88.20;;;;;;5125392;27;20212;-76
2021/12/26 08:49:27;;;;;;;4.03;3.60;;;7.40;88.20;;;;;;5116624;27;20263;-75
2021/12/26 08:51:53;;;;;;;4.43;4.07;;;7.50;88.10;;;;;;5101156;27;20178;-75
2021/12/26 08:54:21;;;;;;;5.70;3.57;;;7.60;88.00;;;;;;5121388;27;20177;-75
2021/12/26 08:56:47;;;;;;;3.60;3.30;;;7.70;87.80;;;;;;5100829;27;20176;-75
2021/12/26 08:59:13;;;;;;;4.00;3.43;;;7.80;87.40;;;;;;5123194;27;20183;-74
2021/12/26 09:01:39;;;;;;;5.53;3.30;;;7.80;87.10;;;;;;5123754;27;20902;-74
2021/12/26 09:04:04;;;;;;;3.50;3.20;;;7.90;87.10;;;;;;5123278;27;20189;-75
2021/12/26 09:06:31;;;;;;;3.90;3.40;;;8.00;87.20;;;;;;5125630;27;20180;-75
2021/12/26 09:08:57;;;;;;;4.27;3.57;;;8.10;87.20;;;;;;5103577;27;20716;-76
2021/12/26 09:11:22;;;;;;;4.27;3.40;;;8.20;87.10;;;;;;5121128;27;20181;-76
2021/12/26 09:13:48;;;;;;;3.90;3.50;;;8.20;87.00;;;;;;5117062;27;20173;-77
2021/12/26 09:16:14;;;;;;;4.37;4.03;;;8.30;86.70;;;;;;5120397;27;20184;-77
2021/12/26 09:18:41;;;;;;;4.23;3.83;;;8.30;86.60;;;;;;5114768;27;20738;-80
2021/12/26 09:21:07;;;;;;;4.90;4.40;;;8.40;86.30;;;;;;5103224;27;20181;-75
2021/12/26 09:23:33;;;;;;;5.47;3.83;;;8.40;86.20;;;;;;5048872;28;20249;-76
2021/12/26 09:25:59;;;;;;;4.80;4.40;;;8.40;86.30;;;;;;5051272;28;20199;-76
2021/12/26 09:28:25;;;;;;;8.53;4.57;;;8.40;86.00;;;;;;5049146;28;20313;-77
2021/12/26 09:30:51;;;;;;;8.40;4.83;;;8.40;86.00;;;;;;5047016;28;20190;-77
2021/12/26 09:33:19;;;;;;;5.00;4.50;;;8.50;86.10;;;;;;5049940;28;20705;-77
2021/12/26 09:35:49;;;;;;;4.63;4.03;;;8.60;85.30;;;;;;5053216;28;20190;-75
2021/12/26 09:38:16;;;;;;;7.43;5.03;;;8.60;85.80;;;;;;5045995;28;20187;-77
2021/12/26 09:40:42;;;;;;;5.00;4.47;;;8.70;85.90;;;;;;5046116;28;20290;-75
2021/12/26 09:43:07;;;;;;;4.82;4.07;;;8.80;85.90;;;;;;5049647;28;20192;-74
2021/12/26 09:45:33;;;;;;;5.22;4.82;;;8.90;85.40;;;;;;5050046;28;20182;-76
2021/12/26 09:47:59;;;;;;;7.17;4.80;;;9.00;85.30;;;;;;5051212;28;20195;-76
2021/12/26 09:50:26;;;;;;;5.65;5.05;;;9.10;84.80;;;;;;5051527;28;20191;-76
2021/12/26 09:52:53;;;;;;;7.22;4.53;;;9.20;84.30;;;;;;5055497;28;20692;-76
2021/12/26 09:55:20;;;;;;;5.22;4.72;;;9.30;83.60;;;;;;5051698;28;20206;-76
2021/12/26 09:57:45;;;;;;;7.45;4.65;;;9.40;84.00;;;;;;5053793;28;20174;-76
2021/12/26 10:00:24;;;;;;;4.43;3.83;;;9.50;83.60;;;;;;5049663;28;20184;-76
2021/12/26 10:03:17;;;;;;;3.63;3.33;;;9.60;83.50;;;;;;5051607;28;20179;-76
2021/12/26 10:06:10;;;;;;;4.82;4.18;;;9.80;83.70;;;;;;5052772;28;20265;-77
2021/12/26 10:08:57;;;;;;;4.95;4.25;;;9.90;83.70;;;;;;5051213;28;20268;-76
2021/12/26 10:11:51;;;;;;;8.52;4.30;;;10.10;82.50;;;;;;5053669;28;21402;-76
2021/12/26 10:14:25;;;;;;;4.55;4.15;;;10.30;82.70;;;;;;5053032;28;20198;-76
2021/12/26 10:16:59;;;;;;;5.95;4.60;;;10.50;83.10;;;;;;5054032;28;20179;-76
2021/12/26 10:19:25;;;;;;;6.00;4.95;;;10.80;82.60;;;;;;5051032;28;20630;-75
2021/12/26 10:21:53;;;;;;;11.07;3.30;;;11.10;82.30;;;;;;5050825;28;20179;-74
2021/12/26 10:24:21;;;;;;;5.00;3.90;;;11.30;81.00;;;;;;5038464;28;20621;-74
2021/12/26 10:26:55;;;;;;;4.78;4.35;;;11.60;79.90;;;;;;5043361;28;20640;-74
2021/12/26 10:29:41;;;;;;;8.50;5.03;;;11.80;79.50;;;;;;5051273;28;20220;-75
2021/12/26 10:32:08;;;;;;;5.75;5.28;;;12.20;79.90;;;;;;5052169;28;20188;-74
2021/12/26 10:34:53;;;;;;;5.60;5.00;;;12.60;79.10;;;;;;5056297;28;20645;-74
2021/12/26 10:37:38;;;;;;;5.25;4.50;;;13.00;77.00;;;;;;5053973;28;20191;-74
2021/12/26 10:40:14;;;;;;;3.47;3.25;;;13.30;76.30;;;;;;5045339;28;20197;-74
2021/12/26 10:42:49;;;;;;;4.88;4.47;;;13.70;75.40;;;;;;5048564;28;20184;-74
2021/12/26 10:45:18;;;;;;;5.25;4.55;;;14.00;73.80;;;;;;5054130;28;20766;-74
2021/12/26 10:48:05;;;;;;;4.40;4.10;;;14.30;72.80;;;;;;5049682;28;20195;-74
2021/12/26 10:50:35;;;;;;;4.28;3.97;;;14.40;72.30;;;;;;5052857;28;20210;-74
2021/12/26 10:53:02;;;;;;;9.73;4.60;;;14.70;71.20;;;;;;5058289;28;20183;-74
2021/12/26 10:55:29;;;;;;;4.10;3.63;;;14.80;71.50;;;;;;5053548;28;20192;-75
2021/12/26 10:57:55;;;;;;;4.50;3.92;;;15.00;70.90;;;;;;5045120;28;20172;-74
2021/12/26 11:00:24;;;;;;;5.03;4.10;;;15.20;70.50;;;;;;5054146;28;20269;-73
2021/12/26 11:02:51;;;;;;;4.45;4.05;;;15.40;70.80;;;;;;5051524;28;20180;-74
2021/12/26 11:05:28;;;;;;;4.38;4.10;;;15.70;70.40;;;;;;5047686;28;20238;-74
2021/12/26 11:08:03;;;;;;;4.70;4.30;;;16.00;70.20;;;;;;5046809;28;20195;-74
2021/12/26 11:10:37;;;;;;;5.25;4.82;;;16.40;69.10;;;;;;5060048;28;20179;-74
2021/12/26 11:13:05;;;;;;;7.35;4.57;;;16.60;68.60;;;;;;5049936;28;20667;-76
2021/12/26 11:15:37;;;;;;;5.38;4.88;;;16.90;67.20;;;;;;5054664;28;20178;-77
2021/12/26 11:18:09;;;;;;;5.68;4.45;;;17.10;66.90;;;;;;5050341;28;20279;-76
2021/12/26 11:20:41;;;;;;;4.97;4.47;;;16.90;65.20;;;;;;5052886;28;20179;-73
2021/12/26 11:23:13;;;;;;;5.95;4.70;;;16.80;66.60;;;;;;5055129;28;20179;-74
2021/12/26 11:26:09;;;;;;;4.97;4.57;;;16.80;66.80;;;;;;5049554;28;20215;-74
2021/12/26 11:28:38;;;;;;;5.75;5.20;;;16.90;66.20;;;;;;5052575;28;20179;-74
2021/12/26 11:31:08;;;;;;;6.75;5.63;;;16.90;66.40;;;;;;5054029;28;20187;-73
2021/12/26 11:33:34;;;;;;;6.97;4.65;;;16.80;66.10;;;;;;5050051;28;20180;-74
2021/12/26 11:36:02;;;;;;;6.18;5.57;;;16.80;66.70;;;;;;5046622;28;20245;-74
2021/12/26 11:38:29;;;;;;;5.70;5.20;;;16.80;66.30;;;;;;5049975;28;20214;-76
2021/12/26 11:41:01;;;;;;;5.80;5.30;;;16.80;66.30;;;;;;5053640;28;20183;-73
2021/12/26 11:43:54;;;;;;;10.05;6.57;;;16.70;66.60;;;;;;5051891;28;20192;-73
2021/12/26 11:46:41;;;;;;;9.82;7.50;;;16.50;66.80;;;;;;5051269;28;20294;-73
2021/12/26 11:49:21;;;;;;;8.98;8.10;;;16.10;66.00;;;;;;5047971;28;20184;-73
2021/12/26 11:52:20;;;;;;;11.02;6.95;;;16.00;68.00;;;;;;5055231;28;20590;-73
2021/12/26 11:55:14;;;;;;;10.63;7.50;;;16.20;68.40;;;;;;5053374;28;20197;-75
2021/12/26 11:58:16;;;;;;;14.40;8.88;;;16.40;68.00;;;;;;5049801;28;20191;-73
2021/12/26 12:00:49;;;;;;;11.50;8.38;;;16.60;67.90;;;;;;5058458;28;20290;-74
2021/12/26 12:03:23;;;;;;;9.82;8.60;;;16.70;66.30;;;;;;5051231;28;20926;-75
2021/12/26 12:05:50;;;;;;;14.25;9.15;;;16.60;67.50;;;;;;5056893;28;20959;-75
2021/12/26 12:08:23;;;;;;;12.25;9.20;;;16.70;67.20;;;;;;5052859;28;20204;-74
2021/12/26 12:10:55;;;;;;;10.05;8.60;;;16.50;66.80;;;;;;5053994;28;20190;-74
2021/12/26 12:13:27;;;;;;;9.50;8.50;;;16.30;68.00;;;;;;5056982;28;20286;-74
2021/12/26 12:16:01;;;;;;;13.43;8.75;;;16.20;67.20;;;;;;5058840;28;20186;-74
2021/12/26 12:18:34;;;;;;;10.88;8.32;;;16.10;66.50;;;;;;5051834;28;20216;-75
2021/12/26 12:21:11;;;;;;;12.13;8.98;;;16.10;67.30;;;;;;5054091;28;20176;-74
2021/12/26 12:23:57;;;;;;;9.52;8.00;;;16.20;68.00;;;;;;5055182;28;20194;-75
2021/12/26 12:26:46;;;;;;;11.85;8.27;;;16.30;67.80;;;;;;5050036;28;20186;-74
2021/12/26 12:29:24;;;;;;;11.52;8.50;;;16.40;67.40;;;;;;5047309;28;20180;-74
2021/12/26 12:32:08;;;;;;;12.70;8.60;;;16.30;66.30;;;;;;5053909;28;20175;-73
2021/12/26 12:34:55;;;;;;;10.93;8.13;;;16.30;67.00;;;;;;5050890;28;20284;-73
2021/12/26 12:37:41;;;;;;;8.90;6.80;;;16.20;66.10;;;;;;5051102;28;20248;-74
2021/12/26 12:40:10;;;;;;;9.70;7.25;;;16.00;66.60;;;;;;5054152;28;20211;-75
2021/12/26 12:42:36;;;;;;;11.18;8.02;;;15.80;67.00;;;;;;5049638;28;20184;-74
2021/12/26 12:45:04;;;;;;;12.55;8.35;;;15.70;67.50;;;;;;5052629;28;20632;-74
2021/12/26 12:47:29;;;;;;;15.52;8.75;;;15.50;67.50;;;;;;5049990;28;20184;-74
2021/12/26 12:50:02;;;;;;;11.38;8.60;;;15.30;68.00;;;;;;5050278;28;20249;-74
2021/12/26 12:52:43;;;;;;;12.25;8.60;;;15.00;68.40;;;;;;5050307;28;20187;-74
2021/12/26 12:55:22;;;;;;;12.05;8.40;;;14.70;68.70;;;;;;5058687;28;20229;-73
2021/12/26 12:57:53;;;;;;;15.02;8.00;;;14.40;69.30;;;;;;5055357;28;20240;-74
2021/12/26 13:00:24;;;;;;;12.90;8.45;;;14.30;69.90;;;;;;5055344;28;20180;-74
2021/12/26 13:02:59;;;;;;;9.68;7.93;;;14.30;70.20;;;;;;5049400;28;20340;-75
2021/12/26 13:05:27;;;;;;;9.50;8.50;;;14.30;69.90;;;;;;5052063;28;20182;-75